createdAt,value
2022-11-23T00:00:01.715Z,18.40
2022-11-23T00:01:10.336Z,20.83
2022-11-23T00:02:00.953Z,18.33
2022-11-23T00:03:01.413Z,18.40
2022-11-23T00:04:03.562Z,17.83
2022-11-23T00:05:00.936Z,16.67
2022-11-23T00:06:01.726Z,19.03
2022-11-23T00:07:01.347Z,21.87
2022-11-23T00:08:01.311Z,18.63
2022-11-23T00:09:01.599Z,17.03
2022-11-23T00:10:01.218Z,18.73
2022-11-23T00:11:01.243Z,20.77
2022-11-23T00:12:01.238Z,21.63
2022-11-23T00:13:00.928Z,21.93
2022-11-23T00:14:01.619Z,19.13
2022-11-23T00:15:00.919Z,18.83
2022-11-23T00:16:04.176Z,18.37
2022-11-23T00:18:01.216Z,24.40
2022-11-23T00:19:01.962Z,23.87
2022-11-23T00:20:00.934Z,22.90
2022-11-23T00:21:06.164Z,23.73
2022-11-23T00:22:00.942Z,23.07
2022-11-23T00:23:01.232Z,22.33
2022-11-23T00:24:01.404Z,17.90
2022-11-23T00:25:01.027Z,21.13
2022-11-23T00:26:01.661Z,17.77
2022-11-23T00:27:00.919Z,17.73
2022-11-23T00:28:01.026Z,15.10
2022-11-23T00:29:01.137Z,18.83
2022-11-23T00:30:01.024Z,17.60
2022-11-23T00:31:01.036Z,16.43
2022-11-23T00:32:01.253Z,17.20
2022-11-23T00:33:01.211Z,17.23
2022-11-23T00:34:01.014Z,19.80
2022-11-23T00:35:00.956Z,17.43
2022-11-23T00:36:03.193Z,19.30
2022-11-23T00:37:00.954Z,20.07
2022-11-23T00:38:01.250Z,17.83
2022-11-23T00:39:00.926Z,17.27
2022-11-23T00:40:01.247Z,18.60
2022-11-23T00:41:02.819Z,16.73
2022-11-23T00:42:00.945Z,15.97
2022-11-23T00:43:00.948Z,20.63
2022-11-23T00:44:00.947Z,17.37
2022-11-23T00:45:01.241Z,18.93
2022-11-23T00:46:05.228Z,20.30
2022-11-23T00:47:01.203Z,36.80
2022-11-23T00:48:00.926Z,20.23
2022-11-23T00:49:01.221Z,22.00
2022-11-23T00:50:00.924Z,26.47
2022-11-23T00:51:02.216Z,26.77
2022-11-23T00:52:01.242Z,27.17
2022-11-23T00:53:00.932Z,21.77
2022-11-23T00:54:02.783Z,37.00
2022-11-23T00:55:01.222Z,23.40
2022-11-23T00:56:01.269Z,22.60
2022-11-23T00:57:01.254Z,23.87
2022-11-23T00:58:01.258Z,23.63
2022-11-23T00:59:02.754Z,22.47
2022-11-23T01:00:01.015Z,22.40
2022-11-23T01:01:04.465Z,20.23
2022-11-23T01:02:01.560Z,24.27
2022-11-23T01:03:01.228Z,25.50
2022-11-23T01:04:04.567Z,21.10
2022-11-23T01:05:01.415Z,22.57
2022-11-23T01:06:04.665Z,20.00
2022-11-23T01:07:00.947Z,20.33
2022-11-23T01:08:01.884Z,19.53
2022-11-23T01:09:04.722Z,18.57
2022-11-23T01:10:00.939Z,18.97
2022-11-23T01:11:02.755Z,21.13
2022-11-23T01:12:01.227Z,21.30
2022-11-23T01:13:01.483Z,21.93
2022-11-23T01:14:01.799Z,19.20
2022-11-23T01:15:00.932Z,17.33
2022-11-23T01:16:01.284Z,18.03
2022-11-23T01:17:01.218Z,20.73
2022-11-23T01:18:00.939Z,16.27
2022-11-23T01:19:03.932Z,17.93
2022-11-23T01:20:01.237Z,17.80
2022-11-23T01:21:01.595Z,18.23
2022-11-23T01:22:01.255Z,20.50
2022-11-23T01:23:00.924Z,19.23
2022-11-23T01:24:03.969Z,19.07
2022-11-23T01:25:01.233Z,18.83
2022-11-23T01:26:03.732Z,17.30
2022-11-23T01:27:01.231Z,19.07
2022-11-23T01:28:00.932Z,19.17
2022-11-23T01:29:01.207Z,20.37
2022-11-23T01:30:00.949Z,20.03
2022-11-23T01:31:06.186Z,20.00
2022-11-23T01:32:01.324Z,22.33
2022-11-23T01:33:01.524Z,19.17
2022-11-23T01:34:02.627Z,19.43
2022-11-23T01:35:01.197Z,21.83
2022-11-23T01:36:07.458Z,18.50
2022-11-23T01:37:01.001Z,18.33
2022-11-23T01:38:01.221Z,16.60
2022-11-23T01:39:03.040Z,19.23
2022-11-23T01:40:01.220Z,18.70
2022-11-23T01:41:01.314Z,19.23
2022-11-23T01:42:00.968Z,18.57
2022-11-23T01:43:01.200Z,19.93
2022-11-23T01:44:01.286Z,19.27
2022-11-23T01:45:20.409Z,18.80
2022-11-23T01:46:02.798Z,15.30
2022-11-23T01:47:02.800Z,20.00
2022-11-23T01:48:04.640Z,20.83
2022-11-23T01:49:05.754Z,18.87
2022-11-23T01:50:01.275Z,19.63
2022-11-23T01:51:04.184Z,17.17
2022-11-23T01:52:06.206Z,20.57
2022-11-23T01:53:01.551Z,17.00
2022-11-23T01:54:05.617Z,17.23
2022-11-23T01:55:05.291Z,20.40
2022-11-23T01:56:05.242Z,20.63
2022-11-23T01:57:06.859Z,17.20
2022-11-23T01:58:03.525Z,16.80
2022-11-23T01:59:04.026Z,16.43
2022-11-23T02:00:01.365Z,17.23
2022-11-23T02:01:01.882Z,20.33
2022-11-23T02:02:01.302Z,16.30
2022-11-23T02:03:04.233Z,17.87
2022-11-23T02:04:01.994Z,15.03
2022-11-23T02:05:01.947Z,16.00
2022-11-23T02:06:04.774Z,17.77
2022-11-23T02:07:02.956Z,17.73
2022-11-23T02:08:03.872Z,17.93
2022-11-23T02:09:02.040Z,20.30
2022-11-23T02:10:01.827Z,16.80
2022-11-23T02:11:01.373Z,21.50
2022-11-23T02:12:01.427Z,18.63
2022-11-23T02:13:04.447Z,20.43
2022-11-23T02:14:01.348Z,16.83
2022-11-23T02:15:01.341Z,16.93
2022-11-23T02:16:01.474Z,17.47
2022-11-23T02:17:01.468Z,17.10
2022-11-23T02:18:04.407Z,17.87
2022-11-23T02:19:01.266Z,18.50
2022-11-23T02:20:07.026Z,16.20
2022-11-23T02:21:02.961Z,40.60
2022-11-23T02:22:01.565Z,16.03
2022-11-23T02:23:10.220Z,20.27
2022-11-23T02:24:07.057Z,15.63
2022-11-23T02:25:08.173Z,18.40
2022-11-23T02:26:04.828Z,20.50
2022-11-23T02:27:01.970Z,21.83
2022-11-23T02:28:01.304Z,18.60
2022-11-23T02:29:05.559Z,20.33
2022-11-23T02:30:02.458Z,15.93
2022-11-23T02:31:01.583Z,16.27
2022-11-23T02:33:03.525Z,21.67
2022-11-23T02:34:01.333Z,15.37
2022-11-23T02:35:00.933Z,18.80
2022-11-23T02:36:01.207Z,16.70
2022-11-23T02:37:01.285Z,19.63
2022-11-23T02:38:03.567Z,18.40
2022-11-23T02:39:06.319Z,17.70
2022-11-23T02:40:09.127Z,17.27
2022-11-23T02:41:00.930Z,17.40
2022-11-23T02:42:01.620Z,20.40
2022-11-23T02:44:03.856Z,19.13
2022-11-23T02:45:11.461Z,17.50
2022-11-23T02:46:03.925Z,19.30
2022-11-23T02:47:01.050Z,15.80
2022-11-23T02:48:01.208Z,16.50
2022-11-23T02:50:01.203Z,16.47
2022-11-23T02:51:01.118Z,17.70
2022-11-23T02:52:01.687Z,15.73
2022-11-23T02:53:00.937Z,15.47
2022-11-23T02:54:00.953Z,13.77
2022-11-23T02:55:01.106Z,15.20
2022-11-23T02:56:00.923Z,16.70
2022-11-23T02:57:01.043Z,18.90
2022-11-23T02:58:01.526Z,18.40
2022-11-23T02:59:00.956Z,19.40
2022-11-23T03:00:01.244Z,15.83
2022-11-23T03:01:01.458Z,18.97
2022-11-23T03:02:02.898Z,17.07
2022-11-23T03:03:02.140Z,15.93
2022-11-23T03:04:00.929Z,17.67
2022-11-23T03:05:00.925Z,19.87
2022-11-23T03:06:01.262Z,19.13
2022-11-23T03:07:01.230Z,20.67
2022-11-23T03:08:01.236Z,21.37
2022-11-23T03:09:01.258Z,19.70
2022-11-23T03:10:02.155Z,22.67
2022-11-23T03:11:01.398Z,25.03
2022-11-23T03:12:01.427Z,16.90
2022-11-23T03:13:01.252Z,19.33
2022-11-23T03:14:01.320Z,21.40
2022-11-23T03:15:01.471Z,18.00
2022-11-23T03:16:00.957Z,19.80
2022-11-23T03:17:00.988Z,21.23
2022-11-23T03:18:01.337Z,19.30
2022-11-23T03:19:01.757Z,21.73
2022-11-23T03:20:01.501Z,21.97
2022-11-23T03:21:02.821Z,20.70
2022-11-23T03:22:01.244Z,19.73
2022-11-23T03:23:01.242Z,20.30
2022-11-23T03:24:01.504Z,19.67
2022-11-23T03:25:01.210Z,20.63
2022-11-23T03:26:01.844Z,18.60
2022-11-23T03:27:01.245Z,16.60
2022-11-23T03:28:00.927Z,18.70
2022-11-23T03:29:00.940Z,15.83
2022-11-23T03:30:00.945Z,17.80
2022-11-23T03:31:01.263Z,21.80
2022-11-23T03:32:01.024Z,19.33
2022-11-23T03:33:00.946Z,21.27
2022-11-23T03:34:01.242Z,18.17
2022-11-23T03:35:01.617Z,19.90
2022-11-23T03:36:01.500Z,22.10
2022-11-23T03:37:01.264Z,18.93
2022-11-23T03:38:00.919Z,16.57
2022-11-23T03:39:01.234Z,17.70
2022-11-23T03:40:01.219Z,20.07
2022-11-23T03:41:01.223Z,21.00
2022-11-23T03:42:01.232Z,19.37
2022-11-23T03:43:01.244Z,18.67
2022-11-23T03:44:01.318Z,20.67
2022-11-23T03:45:00.921Z,23.07
2022-11-23T03:46:01.688Z,24.17
2022-11-23T03:47:01.221Z,20.53
2022-11-23T03:48:01.214Z,24.20
2022-11-23T03:49:01.375Z,22.73
2022-11-23T03:50:00.949Z,24.33
2022-11-23T03:51:00.948Z,22.67
2022-11-23T03:52:00.952Z,25.17
2022-11-23T03:53:01.468Z,26.47
2022-11-23T03:54:01.368Z,25.90
2022-11-23T03:55:00.930Z,25.53
2022-11-23T03:56:00.932Z,23.37
2022-11-23T03:57:01.284Z,23.83
2022-11-23T03:58:01.434Z,27.63
2022-11-23T03:59:00.942Z,29.07
2022-11-23T04:00:01.519Z,25.27
2022-11-23T04:01:01.051Z,27.60
2022-11-23T04:02:00.944Z,28.77
2022-11-23T04:03:01.245Z,30.23
2022-11-23T04:04:01.229Z,30.13
2022-11-23T04:05:01.393Z,27.90
2022-11-23T04:06:01.278Z,28.87
2022-11-23T04:07:01.279Z,28.07
2022-11-23T04:08:01.255Z,33.33
2022-11-23T04:09:02.529Z,28.37
2022-11-23T04:10:00.963Z,28.83
2022-11-23T04:11:00.943Z,25.57
2022-11-23T04:12:01.253Z,25.47
2022-11-23T04:13:00.927Z,27.83
2022-11-23T04:14:01.226Z,29.83
2022-11-23T04:15:01.228Z,29.83
2022-11-23T04:16:01.238Z,27.87
2022-11-23T04:17:01.307Z,30.20
2022-11-23T04:18:00.973Z,24.67
2022-11-23T04:19:01.267Z,30.33
2022-11-23T04:20:01.414Z,26.57
2022-11-23T04:21:00.972Z,29.70
2022-11-23T04:22:01.399Z,29.93
2022-11-23T04:23:00.937Z,32.33
2022-11-23T04:24:00.962Z,33.27
2022-11-23T04:25:01.236Z,24.57
2022-11-23T04:26:01.240Z,28.70
2022-11-23T04:27:01.303Z,29.50
2022-11-23T04:28:01.226Z,29.10
2022-11-23T04:29:01.307Z,27.30
2022-11-23T04:30:01.129Z,28.90
2022-11-23T04:31:01.210Z,31.40
2022-11-23T04:32:00.936Z,25.73
2022-11-23T04:33:00.934Z,27.37
2022-11-23T04:34:01.313Z,27.20
2022-11-23T04:35:01.215Z,26.27
2022-11-23T04:36:01.210Z,26.93
2022-11-23T04:37:01.282Z,25.10
2022-11-23T04:38:00.921Z,24.03
2022-11-23T04:39:01.351Z,23.27
2022-11-23T04:40:01.473Z,22.43
2022-11-23T04:41:01.435Z,23.63
2022-11-23T04:42:01.216Z,24.80
2022-11-23T04:43:02.153Z,24.63
2022-11-23T04:44:01.231Z,22.23
2022-11-23T04:45:00.920Z,23.40
2022-11-23T04:46:00.971Z,20.93
2022-11-23T04:47:01.218Z,25.80
2022-11-23T04:48:00.913Z,23.27
2022-11-23T04:49:01.346Z,22.10
2022-11-23T04:50:01.252Z,24.57
2022-11-23T04:51:00.917Z,18.57
2022-11-23T04:52:01.562Z,22.80
2022-11-23T04:53:00.904Z,22.90
2022-11-23T04:54:01.360Z,20.07
2022-11-23T04:55:01.230Z,22.10
2022-11-23T04:56:01.291Z,22.83
2022-11-23T04:57:01.452Z,20.83
2022-11-23T04:58:01.412Z,22.10
2022-11-23T04:59:01.240Z,23.23
2022-11-23T05:00:01.296Z,18.70
2022-11-23T05:01:01.721Z,18.53
2022-11-23T05:02:00.962Z,21.20
2022-11-23T05:03:01.561Z,21.67
2022-11-23T05:04:01.344Z,24.00
2022-11-23T05:05:00.927Z,22.90
2022-11-23T05:06:01.966Z,24.33
2022-11-23T05:07:01.502Z,22.50
2022-11-23T05:08:00.924Z,22.67
2022-11-23T05:09:01.093Z,24.43
2022-11-23T05:10:00.931Z,24.17
2022-11-23T05:11:01.220Z,23.17
2022-11-23T05:12:01.253Z,23.87
2022-11-23T05:13:00.948Z,24.20
2022-11-23T05:14:01.191Z,24.27
2022-11-23T05:15:02.024Z,23.80
2022-11-23T05:16:00.952Z,23.20
2022-11-23T05:17:00.942Z,24.57
2022-11-23T05:18:02.111Z,25.13
2022-11-23T05:19:01.651Z,24.00
2022-11-23T05:20:01.543Z,21.30
2022-11-23T05:21:00.925Z,23.17
2022-11-23T05:22:01.215Z,22.93
2022-11-23T05:23:01.586Z,21.37
2022-11-23T05:24:00.927Z,21.40
2022-11-23T05:25:01.386Z,21.60
2022-11-23T05:26:01.267Z,22.90
2022-11-23T05:27:01.110Z,19.67
2022-11-23T05:28:16.542Z,23.07
2022-11-23T05:29:00.911Z,23.23
2022-11-23T05:30:01.334Z,20.47
2022-11-23T05:31:01.218Z,22.03
2022-11-23T05:32:01.224Z,22.73
2022-11-23T05:33:01.852Z,27.47
2022-11-23T05:34:00.911Z,24.67
2022-11-23T05:35:00.951Z,24.83
2022-11-23T05:36:01.239Z,24.20
2022-11-23T05:37:00.932Z,22.63
2022-11-23T05:38:01.664Z,22.63
2022-11-23T05:39:01.220Z,23.80
2022-11-23T05:40:02.025Z,23.00
2022-11-23T05:41:01.223Z,22.10
2022-11-23T05:42:01.285Z,24.17
2022-11-23T05:43:01.289Z,23.83
2022-11-23T05:44:00.926Z,23.90
2022-11-23T05:45:01.032Z,19.53
2022-11-23T05:46:01.981Z,23.80
2022-11-23T05:47:01.350Z,25.70
2022-11-23T05:48:00.977Z,23.37
2022-11-23T05:49:00.936Z,23.03
2022-11-23T05:50:01.261Z,22.30
2022-11-23T05:51:05.037Z,20.30
2022-11-23T05:52:00.941Z,24.37
2022-11-23T05:53:01.003Z,25.13
2022-11-23T05:54:01.641Z,25.03
2022-11-23T05:55:01.215Z,24.20
2022-11-23T05:56:02.127Z,23.73
2022-11-23T05:57:01.284Z,29.43
2022-11-23T05:58:01.541Z,25.47
2022-11-23T05:59:00.917Z,24.13
2022-11-23T06:00:01.617Z,26.07
2022-11-23T06:01:01.503Z,22.23
2022-11-23T06:02:01.250Z,22.37
2022-11-23T06:03:01.660Z,24.03
2022-11-23T06:04:01.318Z,20.37
2022-11-23T06:05:01.254Z,19.43
2022-11-23T06:06:01.373Z,20.23
2022-11-23T06:07:01.406Z,17.97
2022-11-23T06:08:00.918Z,26.43
2022-11-23T06:09:01.512Z,20.90
2022-11-23T06:10:01.869Z,20.93
2022-11-23T06:11:00.951Z,25.37
2022-11-23T06:12:00.953Z,19.33
2022-11-23T06:13:03.657Z,20.70
2022-11-23T06:14:01.243Z,25.17
2022-11-23T06:15:00.918Z,25.23
2022-11-23T06:16:01.733Z,23.80
2022-11-23T06:17:01.316Z,24.00
2022-11-23T06:18:01.529Z,25.47
2022-11-23T06:19:01.300Z,25.70
2022-11-23T06:20:01.186Z,20.50
2022-11-23T06:21:01.260Z,24.77
2022-11-23T06:22:01.451Z,21.23
2022-11-23T06:23:01.277Z,25.47
2022-11-23T06:24:01.285Z,24.80
2022-11-23T06:25:01.256Z,25.13
2022-11-23T06:26:01.595Z,24.63
2022-11-23T06:27:00.927Z,22.07
2022-11-23T06:28:00.955Z,22.27
2022-11-23T06:29:01.233Z,21.87
2022-11-23T06:30:01.269Z,25.13
2022-11-23T06:31:02.965Z,25.83
2022-11-23T06:32:01.243Z,22.37
2022-11-23T06:33:02.820Z,22.50
2022-11-23T06:34:00.949Z,22.10
2022-11-23T06:35:01.407Z,27.07
2022-11-23T06:36:02.360Z,22.17
2022-11-23T06:37:01.226Z,23.20
2022-11-23T06:38:00.928Z,24.30
2022-11-23T06:39:01.217Z,25.10
2022-11-23T06:40:01.229Z,28.73
2022-11-23T06:41:02.734Z,23.47
2022-11-23T06:42:23.377Z,21.33
2022-11-23T06:43:01.225Z,20.03
2022-11-23T06:44:01.212Z,27.87
2022-11-23T06:45:01.227Z,23.83
2022-11-23T06:46:03.829Z,22.73
2022-11-23T06:47:00.912Z,24.90
2022-11-23T06:48:00.925Z,26.47
2022-11-23T06:49:01.237Z,26.40
2022-11-23T06:50:00.996Z,24.53
2022-11-23T06:51:01.428Z,23.53
2022-11-23T06:52:01.212Z,28.57
2022-11-23T06:53:02.315Z,20.17
2022-11-23T06:54:01.230Z,19.80
2022-11-23T06:55:01.259Z,24.47
2022-11-23T06:56:02.043Z,21.23
2022-11-23T06:57:01.225Z,25.30
2022-11-23T06:58:00.917Z,19.77
2022-11-23T06:59:00.914Z,22.63
2022-11-23T07:00:01.436Z,21.40
2022-11-23T07:01:02.666Z,22.40
2022-11-23T07:02:00.939Z,20.60
2022-11-23T07:03:01.250Z,22.07
2022-11-23T07:04:01.439Z,27.73
2022-11-23T07:05:01.238Z,27.50
2022-11-23T07:06:05.036Z,20.07
2022-11-23T07:07:00.915Z,21.57
2022-11-23T07:08:00.909Z,29.43
2022-11-23T07:09:01.227Z,27.57
2022-11-23T07:10:05.552Z,24.37
2022-11-23T07:11:01.411Z,23.63
2022-11-23T07:12:01.356Z,46.87
2022-11-23T07:13:02.842Z,24.70
2022-11-23T07:14:00.945Z,34.37
2022-11-23T07:15:01.156Z,18.30
2022-11-23T07:16:00.916Z,21.90
2022-11-23T07:17:01.086Z,20.37
2022-11-23T07:18:01.419Z,21.17
2022-11-23T07:19:01.286Z,24.20
2022-11-23T07:20:00.935Z,23.73
2022-11-23T07:21:00.939Z,24.87
2022-11-23T07:22:01.251Z,20.87
2022-11-23T07:23:01.843Z,27.27
2022-11-23T07:24:01.018Z,24.03
2022-11-23T07:25:00.955Z,25.67
2022-11-23T07:26:02.031Z,22.80
2022-11-23T07:27:00.927Z,25.40
2022-11-23T07:28:02.898Z,23.90
2022-11-23T07:29:00.929Z,22.53
2022-11-23T07:30:01.255Z,27.23
2022-11-23T07:31:01.033Z,25.57
2022-11-23T07:32:01.285Z,22.83
2022-11-23T07:33:02.677Z,22.83
2022-11-23T07:34:01.242Z,25.27
2022-11-23T07:35:01.342Z,27.37
2022-11-23T07:36:01.505Z,22.83
2022-11-23T07:37:02.254Z,22.37
2022-11-23T07:38:01.321Z,25.20
2022-11-23T07:39:00.932Z,21.30
2022-11-23T07:40:01.647Z,26.57
2022-11-23T07:41:01.000Z,25.60
2022-11-23T07:42:30.537Z,24.23
2022-11-23T07:43:02.766Z,25.27
2022-11-23T07:44:00.942Z,28.47
2022-11-23T07:45:01.306Z,25.03
2022-11-23T07:46:01.246Z,22.27
2022-11-23T07:47:00.935Z,25.03
2022-11-23T07:48:04.155Z,21.07
2022-11-23T07:49:01.288Z,27.03
2022-11-23T07:50:01.237Z,25.03
2022-11-23T07:51:01.258Z,22.90
2022-11-23T07:52:01.248Z,24.73
2022-11-23T07:53:02.042Z,24.30
2022-11-23T07:54:00.924Z,24.10
2022-11-23T07:55:01.332Z,22.13
2022-11-23T07:56:01.334Z,24.57
2022-11-23T07:57:01.243Z,24.07
2022-11-23T07:58:01.254Z,24.33
2022-11-23T07:59:01.153Z,21.60
2022-11-23T08:00:01.044Z,25.03
2022-11-23T08:01:01.220Z,24.53
2022-11-23T08:02:01.358Z,23.23
2022-11-23T08:03:28.176Z,27.40
2022-11-23T08:04:00.926Z,27.73
2022-11-23T08:05:01.266Z,26.23
2022-11-23T08:06:01.013Z,37.07
2022-11-23T08:07:01.216Z,56.50
2022-11-23T08:08:02.359Z,54.17
2022-11-23T08:09:01.244Z,51.40
2022-11-23T08:10:01.282Z,53.10
2022-11-23T08:11:00.930Z,36.00
2022-11-23T08:12:01.262Z,40.87
2022-11-23T08:13:04.614Z,32.87
2022-11-23T08:14:00.920Z,33.80
2022-11-23T08:15:01.267Z,27.17
2022-11-23T08:16:01.442Z,25.63
2022-11-23T08:17:01.900Z,22.03
2022-11-23T08:18:03.560Z,22.57
2022-11-23T08:19:01.221Z,26.73
2022-11-23T08:20:01.227Z,25.77
2022-11-23T08:21:01.651Z,26.17
2022-11-23T08:22:01.264Z,27.87
2022-11-23T08:23:01.205Z,28.17
2022-11-23T08:24:01.314Z,28.53
2022-11-23T08:25:00.933Z,25.03
2022-11-23T08:26:02.448Z,22.50
2022-11-23T08:27:00.930Z,27.20
2022-11-23T08:28:02.996Z,32.27
2022-11-23T08:29:01.262Z,27.30
2022-11-23T08:30:00.917Z,30.77
2022-11-23T08:31:04.887Z,24.63
2022-11-23T08:32:01.187Z,28.83
2022-11-23T08:33:03.108Z,26.90
2022-11-23T08:34:03.548Z,27.07
2022-11-23T08:35:01.233Z,25.57
2022-11-23T08:36:04.230Z,24.47
2022-11-23T08:37:01.216Z,28.67
2022-11-23T08:38:01.244Z,26.80
2022-11-23T08:39:00.905Z,24.37
2022-11-23T08:40:01.030Z,26.97
2022-11-23T08:41:02.756Z,27.13
2022-11-23T08:42:01.226Z,28.87
2022-11-23T08:43:01.440Z,26.03
2022-11-23T08:44:00.929Z,33.30
2022-11-23T08:45:01.212Z,27.67
2022-11-23T08:46:06.662Z,24.67
2022-11-23T08:47:00.939Z,31.63
2022-11-23T08:48:02.795Z,32.30
2022-11-23T08:49:01.352Z,26.43
2022-11-23T08:50:01.216Z,29.07
2022-11-23T08:51:00.920Z,28.30
2022-11-23T08:52:01.243Z,31.20
2022-11-23T08:53:01.239Z,30.17
2022-11-23T08:54:01.507Z,27.23
2022-11-23T08:55:01.284Z,25.03
2022-11-23T08:56:01.993Z,31.27
2022-11-23T08:57:01.274Z,30.37
2022-11-23T08:58:00.942Z,27.33
2022-11-23T08:59:01.247Z,27.03
2022-11-23T09:00:01.186Z,28.40
2022-11-23T09:01:01.223Z,26.73
2022-11-23T09:02:01.317Z,22.47
2022-11-23T09:03:01.381Z,25.93
2022-11-23T09:04:01.241Z,29.60
2022-11-23T09:05:01.649Z,24.07
2022-11-23T09:06:01.256Z,23.13
2022-11-23T09:07:02.706Z,24.63
2022-11-23T09:08:01.501Z,25.97
2022-11-23T09:09:02.031Z,22.17
2022-11-23T09:10:00.931Z,25.33
2022-11-23T09:11:01.561Z,21.97
2022-11-23T09:12:01.245Z,24.37
2022-11-23T09:13:01.329Z,27.90
2022-11-23T09:14:00.952Z,23.40
2022-11-23T09:15:01.384Z,24.67
2022-11-23T09:16:02.921Z,21.37
2022-11-23T09:17:01.844Z,23.53
2022-11-23T09:18:01.242Z,26.30
2022-11-23T09:19:01.240Z,25.23
2022-11-23T09:20:01.335Z,22.80
2022-11-23T09:21:03.159Z,27.70
2022-11-23T09:22:00.917Z,24.47
2022-11-23T09:23:00.940Z,27.47
2022-11-23T09:24:01.306Z,24.73
2022-11-23T09:25:01.441Z,20.87
2022-11-23T09:26:02.685Z,24.73
2022-11-23T09:27:01.599Z,24.03
2022-11-23T09:28:01.223Z,23.07
2022-11-23T09:29:00.933Z,25.40
2022-11-23T09:30:01.443Z,23.40
2022-11-23T09:31:03.603Z,21.00
2022-11-23T09:32:01.611Z,31.37
2022-11-23T09:33:00.928Z,23.37
2022-11-23T09:34:01.242Z,26.67
2022-11-23T09:35:01.326Z,23.80
2022-11-23T09:36:03.173Z,23.53
2022-11-23T09:37:01.229Z,25.50
2022-11-23T09:38:01.417Z,29.90
2022-11-23T09:39:01.243Z,27.00
2022-11-23T09:40:00.913Z,23.70
2022-11-23T09:41:13.996Z,24.53
2022-11-23T09:42:20.400Z,31.10
2022-11-23T09:43:16.493Z,31.27
2022-11-23T09:44:05.764Z,28.53
2022-11-23T09:45:13.173Z,27.20
2022-11-23T09:46:12.532Z,30.20
2022-11-23T09:47:12.993Z,31.63
2022-11-23T09:48:20.417Z,28.93
2022-11-23T09:49:11.162Z,29.27
2022-11-23T09:50:11.673Z,31.57
2022-11-23T09:51:07.218Z,28.20
2022-11-23T09:52:01.447Z,24.60
2022-11-23T09:53:11.624Z,25.00
2022-11-23T09:54:04.735Z,26.17
2022-11-23T09:55:10.605Z,29.33
2022-11-23T09:56:01.339Z,28.20
2022-11-23T09:57:03.637Z,25.87
2022-11-23T09:58:04.437Z,29.97
2022-11-23T09:59:11.030Z,29.80
2022-11-23T10:00:05.301Z,31.77
2022-11-23T10:01:03.619Z,24.43
2022-11-23T10:02:01.513Z,32.17
2022-11-23T10:03:01.055Z,31.20
2022-11-23T10:04:03.670Z,31.90
2022-11-23T10:05:04.563Z,29.03
2022-11-23T10:06:06.455Z,31.27
2022-11-23T10:07:17.379Z,31.43
2022-11-23T10:08:09.086Z,30.00
2022-11-23T10:09:11.624Z,28.03
2022-11-23T10:10:12.610Z,27.50
2022-11-23T10:11:14.614Z,25.80
2022-11-23T10:12:20.394Z,28.00
2022-11-23T10:13:12.183Z,27.60
2022-11-23T10:14:13.177Z,27.10
2022-11-23T10:15:09.436Z,24.77
2022-11-23T10:16:17.043Z,26.17
2022-11-23T10:17:08.563Z,25.90
2022-11-23T10:18:12.298Z,29.33
2022-11-23T10:19:11.871Z,28.20
2022-11-23T10:20:19.061Z,32.30
2022-11-23T10:21:12.655Z,31.20
2022-11-23T10:22:09.901Z,28.17
2022-11-23T10:23:02.937Z,30.23
2022-11-23T10:24:12.740Z,30.97
2022-11-23T10:25:13.496Z,29.93
2022-11-23T10:26:01.232Z,33.40
2022-11-23T10:27:02.147Z,31.33
2022-11-23T10:28:11.374Z,30.73
2022-11-23T10:29:10.769Z,31.30
2022-11-23T10:30:01.879Z,32.10
2022-11-23T10:31:12.009Z,28.97
2022-11-23T10:32:01.395Z,34.40
2022-11-23T10:33:13.023Z,34.03
2022-11-23T10:34:08.391Z,34.27
2022-11-23T10:35:10.777Z,31.37
2022-11-23T10:36:01.232Z,32.43
2022-11-23T10:37:00.959Z,36.43
2022-11-23T10:38:13.657Z,35.83
2022-11-23T10:39:08.046Z,38.80
2022-11-23T10:40:00.937Z,36.67
2022-11-23T10:41:04.302Z,31.77
2022-11-23T10:42:08.840Z,36.63
2022-11-23T10:43:10.072Z,30.47
2022-11-23T10:44:06.192Z,32.17
2022-11-23T10:45:01.291Z,32.00
2022-11-23T10:46:20.417Z,29.77
2022-11-23T10:47:01.062Z,25.40
2022-11-23T10:48:01.253Z,31.87
2022-11-23T10:49:16.428Z,28.80
2022-11-23T10:50:00.947Z,25.40
2022-11-23T10:51:15.239Z,24.00
2022-11-23T10:52:03.597Z,29.93
2022-11-23T10:53:20.294Z,29.47
2022-11-23T10:54:05.512Z,27.27
2022-11-23T10:55:05.712Z,31.90
2022-11-23T10:56:01.286Z,22.67
2022-11-23T10:57:12.213Z,21.90
2022-11-23T10:58:00.955Z,22.37
2022-11-23T10:59:01.347Z,24.67
2022-11-23T11:00:04.093Z,25.03
2022-11-23T11:01:04.105Z,25.00
2022-11-23T11:02:12.172Z,23.00
2022-11-23T11:03:20.408Z,23.43
2022-11-23T11:04:02.944Z,24.80
2022-11-23T11:05:13.571Z,26.50
2022-11-23T11:06:10.460Z,23.13
2022-11-23T11:07:19.629Z,27.07
2022-11-23T11:08:11.849Z,21.80
2022-11-23T11:09:06.497Z,21.20
2022-11-23T11:10:02.389Z,22.83
2022-11-23T11:11:04.327Z,24.43
2022-11-23T11:12:01.555Z,26.87
2022-11-23T11:13:01.569Z,20.93
2022-11-23T11:14:04.362Z,22.23
2022-11-23T11:15:13.214Z,23.23
2022-11-23T11:16:04.569Z,21.00
2022-11-23T11:17:01.273Z,21.80
2022-11-23T11:18:00.943Z,22.63
2022-11-23T11:19:20.407Z,22.50
2022-11-23T11:20:20.413Z,21.47
2022-11-23T11:21:04.249Z,25.40
2022-11-23T11:22:03.784Z,25.20
2022-11-23T11:23:03.596Z,25.13
2022-11-23T11:24:04.345Z,20.33
2022-11-23T11:25:01.508Z,24.50
2022-11-23T11:26:05.686Z,22.57
2022-11-23T11:27:04.193Z,23.53
2022-11-23T11:28:03.275Z,22.90
2022-11-23T11:29:04.026Z,21.80
2022-11-23T11:30:06.532Z,22.37
2022-11-23T11:31:20.259Z,20.43
2022-11-23T11:32:05.717Z,23.93
2022-11-23T11:33:08.205Z,24.63
2022-11-23T11:34:10.772Z,24.07
2022-11-23T11:35:09.612Z,23.10
2022-11-23T11:36:03.805Z,23.07
2022-11-23T11:37:08.968Z,24.27
2022-11-23T11:38:09.342Z,20.50
2022-11-23T11:39:18.401Z,24.23
2022-11-23T11:40:09.185Z,22.73
2022-11-23T11:41:06.355Z,24.87
2022-11-23T11:42:06.389Z,22.13
2022-11-23T11:43:06.506Z,22.67
2022-11-23T11:44:08.893Z,23.37
2022-11-23T11:45:04.286Z,22.20
2022-11-23T11:46:28.412Z,23.37
2022-11-23T11:47:09.415Z,23.33
2022-11-23T11:48:08.404Z,23.80
2022-11-23T11:49:08.173Z,22.97
2022-11-23T11:50:12.217Z,24.00
2022-11-23T11:51:07.525Z,17.50
2022-11-23T11:52:06.826Z,22.07
2022-11-23T11:53:06.831Z,22.83
2022-11-23T11:54:10.342Z,25.27
2022-11-23T11:55:11.043Z,22.80
2022-11-23T11:56:11.125Z,25.50
2022-11-23T11:57:06.358Z,24.57
2022-11-23T11:58:09.007Z,22.43
2022-11-23T11:59:13.058Z,22.90
2022-11-23T12:00:07.132Z,24.43
2022-11-23T12:01:13.059Z,24.47
2022-11-23T12:02:18.313Z,21.83
2022-11-23T12:03:09.803Z,21.93
2022-11-23T12:04:06.136Z,22.57
2022-11-23T12:05:13.067Z,23.00
2022-11-23T12:06:07.743Z,18.33
2022-11-23T12:07:07.537Z,22.43
2022-11-23T12:08:05.866Z,22.93
2022-11-23T12:09:06.264Z,19.30
2022-11-23T12:10:08.914Z,22.17
2022-11-23T12:11:01.672Z,20.37
2022-11-23T12:12:02.137Z,21.50
2022-11-23T12:13:01.442Z,20.17
2022-11-23T12:14:03.776Z,21.37
2022-11-23T12:15:01.813Z,20.20
2022-11-23T12:16:10.014Z,21.97
2022-11-23T12:17:31.983Z,23.00
2022-11-23T12:18:20.412Z,19.10
2022-11-23T12:19:10.158Z,19.07
2022-11-23T12:20:12.661Z,24.53
2022-11-23T12:21:03.781Z,21.23
2022-11-23T12:22:17.913Z,18.40
2022-11-23T12:23:12.451Z,18.33
2022-11-23T12:24:09.602Z,24.23
2022-11-23T12:25:16.269Z,23.57
2022-11-23T12:26:16.879Z,21.70
2022-11-23T12:27:17.522Z,19.20
2022-11-23T12:28:18.456Z,19.60
2022-11-23T12:29:17.446Z,25.40
2022-11-23T12:30:16.559Z,25.40
2022-11-23T12:31:13.457Z,20.27
2022-11-23T12:32:11.904Z,24.27
2022-11-23T12:33:19.249Z,18.17
2022-11-23T12:34:16.036Z,21.67
2022-11-23T12:35:20.390Z,20.73
2022-11-23T12:36:20.583Z,19.63
2022-11-23T12:37:16.280Z,21.03
2022-11-23T12:38:13.104Z,23.17
2022-11-23T12:39:09.218Z,24.00
2022-11-23T12:40:20.411Z,21.67
2022-11-23T12:41:13.984Z,19.37
2022-11-23T12:42:09.197Z,23.13
2022-11-23T12:43:05.418Z,24.03
2022-11-23T12:44:20.403Z,17.27
2022-11-23T12:45:15.583Z,21.93
2022-11-23T12:46:10.500Z,21.47
2022-11-23T12:47:13.976Z,20.30
2022-11-23T12:48:13.962Z,20.30
2022-11-23T12:49:19.804Z,20.53
2022-11-23T12:50:10.861Z,24.80
2022-11-23T12:51:14.207Z,22.70
2022-11-23T12:52:15.998Z,23.57
2022-11-23T12:53:14.602Z,22.33
2022-11-23T12:54:18.583Z,20.40
2022-11-23T12:55:19.428Z,20.33
2022-11-23T12:56:10.964Z,19.17